createdAt,value
2018-12-06T00:00:20.779Z,100421.19
2018-12-06T00:02:50.037Z,100411.05
2018-12-06T00:05:19.885Z,100413.81
2018-12-06T00:08:21.860Z,100396.19
2018-12-06T00:10:51.149Z,100397.36
2018-12-06T00:13:20.471Z,100391.30
2018-12-06T00:15:49.692Z,100392.45
2018-12-06T00:18:19.157Z,100385.53
2018-12-06T00:20:48.460Z,100382.36
2018-12-06T00:23:17.825Z,100376.31
2018-12-06T00:25:47.052Z,100376.59
2018-12-06T00:28:17.039Z,100369.66
2018-12-06T00:30:46.281Z,100377.23
2018-12-06T00:33:16.181Z,100377.42
2018-12-06T00:35:45.443Z,100378.80
2018-12-06T00:38:15.584Z,100370.98
2018-12-06T00:40:44.865Z,100359.95
2018-12-06T00:43:14.907Z,100366.77
2018-12-06T00:45:44.138Z,100371.41
2018-12-06T00:48:17.082Z,100373.41
2018-12-06T00:50:46.349Z,100383.23
2018-12-06T00:53:16.417Z,100378.49
2018-12-06T00:55:45.651Z,100380.56
2018-12-06T00:58:15.278Z,100381.73
2018-12-06T01:00:44.585Z,100388.05
2018-12-06T01:03:13.882Z,100384.26
2018-12-06T01:05:43.106Z,100386.53
2018-12-06T01:08:12.952Z,100388.37
2018-12-06T01:10:42.206Z,100386.59
2018-12-06T01:13:11.549Z,100383.45
2018-12-06T01:15:40.845Z,100384.71
2018-12-06T01:18:10.134Z,100386.43
2018-12-06T01:20:39.349Z,100385.59
2018-12-06T01:23:08.702Z,100378.49
2018-12-06T01:25:38.062Z,100366.80
2018-12-06T01:28:07.443Z,100362.80
2018-12-06T01:30:36.702Z,100371.95
2018-12-06T01:33:06.399Z,100367.45
2018-12-06T01:35:35.674Z,100373.79
2018-12-06T01:38:05.075Z,100379.27
2018-12-06T01:40:34.424Z,100373.33
2018-12-06T01:43:03.763Z,100365.86
2018-12-06T01:45:33.018Z,100349.96
2018-12-06T01:48:02.267Z,100353.27
2018-12-06T01:50:31.493Z,100353.23
2018-12-06T01:53:00.709Z,100346.29
2018-12-06T01:55:29.965Z,100347.19
2018-12-06T01:57:59.273Z,100354.66
2018-12-06T02:00:28.575Z,100349.52
2018-12-06T02:02:57.766Z,100349.94
2018-12-06T02:05:26.960Z,100351.77
2018-12-06T02:07:56.182Z,100364.56
2018-12-06T02:10:25.434Z,100354.67
2018-12-06T02:12:54.747Z,100347.52
2018-12-06T02:15:24.071Z,100345.78
2018-12-06T02:17:53.221Z,100341.68
2018-12-06T02:20:22.397Z,100342.05
2018-12-06T02:22:51.578Z,100336.72
2018-12-06T02:25:21.018Z,100347.27
2018-12-06T02:27:50.320Z,100347.83
2018-12-06T02:30:19.922Z,100355.63
2018-12-06T02:32:49.112Z,100359.32
2018-12-06T02:35:19.470Z,100355.49
2018-12-06T02:37:48.770Z,100355.62
2018-12-06T02:40:19.182Z,100343.27
2018-12-06T02:42:48.471Z,100317.55
2018-12-06T02:45:19.306Z,100329.31
2018-12-06T02:47:48.483Z,100334.36
2018-12-06T02:50:18.898Z,100333.14
2018-12-06T02:52:48.095Z,100328.08
2018-12-06T02:55:18.583Z,100330.24
2018-12-06T02:57:47.771Z,100335.73
2018-12-06T03:00:18.617Z,100319.47
2018-12-06T03:02:47.799Z,100322.95
2018-12-06T03:05:18.951Z,100325.33
2018-12-06T03:07:48.170Z,100332.57
2018-12-06T03:10:18.456Z,100329.66
2018-12-06T03:12:47.634Z,100336.52
2018-12-06T03:15:17.657Z,100335.98
2018-12-06T03:17:46.855Z,100328.32
2018-12-06T03:20:17.152Z,100322.50
2018-12-06T03:22:46.349Z,100325.19
2018-12-06T03:25:16.921Z,100325.88
2018-12-06T03:27:49.117Z,100319.03
2018-12-06T03:30:18.793Z,100312.70
2018-12-06T03:32:49.000Z,100307.66
2018-12-06T03:35:18.655Z,100307.16
2018-12-06T03:37:47.954Z,100305.73
2018-12-06T03:40:18.390Z,100305.48
2018-12-06T03:42:47.650Z,100301.28
2018-12-06T03:45:17.649Z,100301.03
2018-12-06T03:47:46.971Z,100300.95
2018-12-06T03:50:17.227Z,100298.92
2018-12-06T03:52:46.410Z,100293.47
2018-12-06T03:55:16.593Z,100292.00
2018-12-06T03:57:45.917Z,100293.73
2018-12-06T04:00:16.209Z,100293.42
2018-12-06T04:02:45.531Z,100296.59
2018-12-06T04:05:15.331Z,100298.23
2018-12-06T04:07:44.690Z,100298.39
2018-12-06T04:10:14.672Z,100292.25
2018-12-06T04:12:43.996Z,100288.63
2018-12-06T04:15:13.306Z,100296.12
2018-12-06T04:17:42.626Z,100304.09
2018-12-06T04:20:12.092Z,100301.93
2018-12-06T04:22:41.293Z,100302.09
2018-12-06T04:25:10.609Z,100307.59
2018-12-06T04:27:39.826Z,100300.44
2018-12-06T04:30:09.135Z,100297.27
2018-12-06T04:32:38.343Z,100299.44
2018-12-06T04:35:08.457Z,100303.09
2018-12-06T04:37:37.799Z,100298.45
2018-12-06T04:40:07.082Z,100302.11
2018-12-06T04:42:36.348Z,100297.96
2018-12-06T04:45:06.765Z,100305.80
2018-12-06T04:47:35.998Z,100312.77
2018-12-06T04:50:05.335Z,100325.77
2018-12-06T04:52:34.550Z,100316.12
2018-12-06T04:55:03.885Z,100310.77
2018-12-06T04:57:33.086Z,100310.78
2018-12-06T05:00:05.722Z,100312.73
2018-12-06T05:02:34.973Z,100315.67
2018-12-06T05:05:04.345Z,100309.38
2018-12-06T05:07:33.566Z,100309.73
2018-12-06T05:10:02.849Z,100309.59
2018-12-06T05:12:32.065Z,100304.95
2018-12-06T05:15:01.314Z,100300.27
2018-12-06T05:17:30.514Z,100302.44
2018-12-06T05:19:59.739Z,100301.29
2018-12-06T05:22:29.033Z,100301.80
2018-12-06T05:24:58.275Z,100300.28
2018-12-06T05:27:27.557Z,100299.77
2018-12-06T05:29:56.768Z,100305.30
2018-12-06T05:32:26.058Z,100305.45
2018-12-06T05:34:55.279Z,100303.80
2018-12-06T05:37:24.501Z,100300.30
2018-12-06T05:39:53.758Z,100295.95
2018-12-06T05:42:23.030Z,100299.80
2018-12-06T05:44:52.268Z,100302.11
2018-12-06T05:47:21.620Z,100298.45
2018-12-06T05:49:50.995Z,100293.63
2018-12-06T05:52:20.234Z,100300.30
2018-12-06T05:54:49.614Z,100310.29
2018-12-06T05:57:18.815Z,100309.45
2018-12-06T05:59:48.060Z,100309.62
2018-12-06T06:02:18.078Z,100317.60
2018-12-06T06:04:47.437Z,100329.97
2018-12-06T06:07:17.228Z,100332.63
2018-12-06T06:09:48.221Z,100328.46
2018-12-06T06:12:17.881Z,100332.78
2018-12-06T06:14:47.131Z,100324.27
2018-12-06T06:17:16.627Z,100329.30
2018-12-06T06:19:45.857Z,100335.79
2018-12-06T06:22:15.113Z,100333.12
2018-12-06T06:24:44.322Z,100342.30
2018-12-06T06:27:14.064Z,100340.30
2018-12-06T06:29:44.248Z,100343.45
2018-12-06T06:32:14.167Z,100350.80
2018-12-06T06:34:43.363Z,100347.95
2018-12-06T06:37:12.969Z,100349.61
2018-12-06T06:39:42.242Z,100357.80
2018-12-06T06:42:11.477Z,100365.63
2018-12-06T06:44:40.653Z,100368.12
2018-12-06T06:47:09.897Z,100367.79
2018-12-06T06:49:39.101Z,100371.63
2018-12-06T06:52:08.333Z,100372.14
2018-12-06T06:54:37.690Z,100371.64
2018-12-06T06:57:06.978Z,100381.64
2018-12-06T06:59:36.279Z,100386.13
2018-12-06T07:02:05.568Z,100395.97
2018-12-06T07:04:34.876Z,100405.13
2018-12-06T07:07:04.097Z,100412.33
2018-12-06T07:09:33.297Z,100421.16
2018-12-06T07:12:02.552Z,100418.62
2018-12-06T07:14:31.800Z,100428.00
2018-12-06T07:17:01.013Z,100427.81
2018-12-06T07:19:30.224Z,100437.49
2018-12-06T07:21:59.434Z,100439.01
2018-12-06T07:24:28.674Z,100436.18
2018-12-06T07:26:57.918Z,100433.48
2018-12-06T07:29:27.174Z,100438.48
2018-12-06T07:31:56.469Z,100436.84
2018-12-06T07:34:25.650Z,100423.16
2018-12-06T07:36:54.949Z,100431.34
2018-12-06T07:39:24.201Z,100421.00
2018-12-06T07:41:53.507Z,100414.32
2018-12-06T07:44:22.882Z,100421.66
2018-12-06T07:46:52.162Z,100422.16
2018-12-06T07:49:21.370Z,100438.48
2018-12-06T07:51:50.757Z,100443.34
2018-12-06T07:54:20.066Z,100446.00
2018-12-06T07:56:49.257Z,100447.02
2018-12-06T07:59:18.441Z,100453.19
2018-12-06T08:01:47.705Z,100452.19
2018-12-06T08:04:16.984Z,100448.33
2018-12-06T08:06:46.254Z,100449.96
2018-12-06T08:09:15.549Z,100452.80
2018-12-06T08:11:44.803Z,100452.28
2018-12-06T08:14:15.087Z,100453.03
2018-12-06T08:16:44.386Z,100460.22
2018-12-06T08:19:14.006Z,100466.91
2018-12-06T08:21:42.844Z,100472.33
2018-12-06T08:24:12.167Z,100470.20
2018-12-06T08:26:41.482Z,100471.64
2018-12-06T08:29:10.923Z,100466.91
2018-12-06T08:31:40.115Z,100464.09
2018-12-06T08:34:09.788Z,100462.30
2018-12-06T08:36:39.000Z,100465.84
2018-12-06T08:39:08.589Z,100476.47
2018-12-06T08:41:37.829Z,100492.11
2018-12-06T08:44:07.092Z,100492.75
2018-12-06T08:46:36.323Z,100485.02
2018-12-06T08:49:05.570Z,100480.87
2018-12-06T08:51:34.808Z,100482.97
2018-12-06T08:54:04.151Z,100480.80
2018-12-06T08:56:33.421Z,100487.67
2018-12-06T08:59:02.644Z,100487.00
2018-12-06T09:01:31.940Z,100492.52
2018-12-06T09:04:01.244Z,100487.69
2018-12-06T09:06:30.447Z,100495.34
2018-12-06T09:08:59.712Z,100501.50
2018-12-06T09:11:28.941Z,100497.35
2018-12-06T09:13:58.191Z,100489.34
2018-12-06T09:16:27.472Z,100485.46
2018-12-06T09:18:56.674Z,100484.13
2018-12-06T09:21:25.903Z,100488.13
2018-12-06T09:23:55.176Z,100489.91
2018-12-06T09:26:24.468Z,100494.12
2018-12-06T09:28:53.734Z,100486.60
2018-12-06T09:31:23.032Z,100483.09
2018-12-06T09:34:04.718Z,100478.13
2018-12-06T09:36:33.970Z,100484.42
2018-12-06T09:39:03.292Z,100483.92
2018-12-06T09:41:32.680Z,100488.81
2018-12-06T09:44:01.918Z,100490.26
2018-12-06T09:46:33.923Z,100490.92
2018-12-06T09:49:04.416Z,100496.08
2018-12-06T09:51:33.756Z,100493.94
2018-12-06T09:54:03.071Z,100501.63
2018-12-06T09:56:32.422Z,100507.33
2018-12-06T09:59:01.657Z,100516.34
2018-12-06T10:01:30.969Z,100519.66
2018-12-06T10:04:00.214Z,100518.37
2018-12-06T10:06:29.500Z,100511.84
2018-12-06T10:08:58.797Z,100528.70
2018-12-06T10:11:28.112Z,100518.02
2018-12-06T10:13:58.099Z,100503.75
2018-12-06T10:16:28.348Z,100500.73
2018-12-06T10:18:58.712Z,100503.31
2018-12-06T10:21:29.351Z,100507.86
2018-12-06T10:23:58.667Z,100513.42
2018-12-06T10:26:27.983Z,100509.38
2018-12-06T10:28:57.262Z,100511.80
2018-12-06T10:31:26.502Z,100520.43
2018-12-06T10:33:55.739Z,100513.21
2018-12-06T10:36:24.969Z,100513.72
2018-12-06T10:38:55.298Z,100513.30
2018-12-06T10:41:24.566Z,100515.20
2018-12-06T10:43:54.038Z,100520.40
2018-12-06T10:46:23.331Z,100523.58
2018-12-06T10:48:52.702Z,100524.39
2018-12-06T10:51:33.029Z,100523.05
2018-12-06T10:54:02.268Z,100514.19
2018-12-06T10:56:36.740Z,100511.02
2018-12-06T10:59:06.081Z,100513.41
2018-12-06T11:01:41.582Z,100507.87
2018-12-06T11:04:13.457Z,100514.39
2018-12-06T11:06:43.804Z,100498.79
2018-12-06T11:09:14.533Z,100504.25
2018-12-06T11:11:44.521Z,100498.38
2018-12-06T11:14:17.032Z,100484.91
2018-12-06T11:16:46.317Z,100483.47
2018-12-06T11:19:15.563Z,100477.50
2018-12-06T11:21:44.860Z,100467.45
2018-12-06T11:24:14.101Z,100453.98
2018-12-06T11:26:43.307Z,100444.00
2018-12-06T11:29:12.744Z,100436.28
2018-12-06T11:31:42.017Z,100432.34
2018-12-06T11:34:11.335Z,100417.27
2018-12-06T11:36:40.744Z,100429.78
2018-12-06T11:39:10.457Z,100447.02
2018-12-06T11:41:43.050Z,100446.19
2018-12-06T11:44:09.473Z,100465.78
2018-12-06T11:46:38.831Z,100467.44
2018-12-06T11:49:08.599Z,100469.53
2018-12-06T11:51:37.868Z,100481.72
2018-12-06T11:54:07.143Z,100473.60
2018-12-06T11:56:36.395Z,100477.37
2018-12-06T11:59:05.734Z,100474.00
2018-12-06T12:01:34.995Z,100479.55
2018-12-06T12:04:04.325Z,100480.53
2018-12-06T12:06:33.543Z,100484.91
2018-12-06T12:09:02.829Z,100474.28
2018-12-06T12:11:32.150Z,100471.84
2018-12-06T12:14:01.458Z,100478.21
2018-12-06T12:16:30.686Z,100470.17
2018-12-06T12:18:59.908Z,100473.32
2018-12-06T12:21:29.319Z,100474.58
2018-12-06T12:23:58.569Z,100467.05
2018-12-06T12:26:27.792Z,100467.13
2018-12-06T12:28:57.006Z,100468.09
2018-12-06T12:31:26.301Z,100473.52
2018-12-06T12:33:55.622Z,100473.58
2018-12-06T12:36:24.944Z,100466.30
2018-12-06T12:38:54.171Z,100462.38
2018-12-06T12:41:23.440Z,100460.27
2018-12-06T12:43:52.633Z,100461.89
2018-12-06T12:46:21.865Z,100467.03
2018-12-06T12:48:51.129Z,100459.41
2018-12-06T12:51:20.372Z,100465.22
2018-12-06T12:53:49.629Z,100464.19
2018-12-06T12:56:18.859Z,100466.20
2018-12-06T12:58:48.087Z,100472.27
2018-12-06T13:01:17.370Z,100474.32
2018-12-06T13:03:46.669Z,100475.17
2018-12-06T13:06:15.871Z,100480.73
2018-12-06T13:08:45.098Z,100486.42
2018-12-06T13:11:14.448Z,100485.84
2018-12-06T13:13:43.709Z,100487.89
2018-12-06T13:16:13.003Z,100483.64
2018-12-06T13:18:42.253Z,100481.37
2018-12-06T13:21:11.555Z,100483.73
2018-12-06T13:23:40.777Z,100487.89
2018-12-06T13:26:10.423Z,100487.89
2018-12-06T13:28:39.625Z,100490.92
2018-12-06T13:31:09.228Z,100498.78
2018-12-06T13:33:38.477Z,100503.77
2018-12-06T13:36:11.852Z,100498.34
2018-12-06T13:38:41.095Z,100489.48
2018-12-06T13:41:10.638Z,100474.92
2018-12-06T13:43:39.961Z,100476.67
2018-12-06T13:46:09.879Z,100481.89
2018-12-06T13:48:39.085Z,100483.92
2018-12-06T13:51:08.745Z,100475.30
2018-12-06T13:53:38.061Z,100477.73
2018-12-06T13:56:10.277Z,100474.44
2018-12-06T13:58:39.548Z,100485.81
2018-12-06T14:01:09.553Z,100479.39
2018-12-06T14:03:38.594Z,100486.98
2018-12-06T14:06:07.956Z,100487.28
2018-12-06T14:08:38.292Z,100483.77
2018-12-06T14:11:06.462Z,100487.92
2018-12-06T14:13:35.824Z,100491.66
2018-12-06T14:16:10.377Z,100503.45
2018-12-06T14:18:34.397Z,100513.35
2018-12-06T14:21:03.653Z,100518.63
2018-12-06T14:23:32.949Z,100508.91
2018-12-06T14:26:02.179Z,100502.62
2018-12-06T14:28:31.423Z,100501.15
2018-12-06T14:31:00.715Z,100495.40
2018-12-06T14:33:29.941Z,100500.06
2018-12-06T14:35:59.119Z,100500.83
2018-12-06T14:38:28.390Z,100501.98
2018-12-06T14:40:57.666Z,100499.23
2018-12-06T14:43:26.891Z,100502.64
2018-12-06T14:45:56.895Z,100507.41
2018-12-06T14:48:26.152Z,100510.63
2018-12-06T14:50:55.463Z,100512.88
2018-12-06T14:53:24.748Z,100511.14
2018-12-06T14:55:54.122Z,100517.14
2018-12-06T14:58:23.379Z,100521.04
2018-12-06T15:00:52.664Z,100515.90
2018-12-06T15:03:21.919Z,100518.84
2018-12-06T15:05:51.205Z,100522.36
2018-12-06T15:08:20.465Z,100521.20
2018-12-06T15:10:49.697Z,100522.29
2018-12-06T15:13:18.946Z,100527.41
2018-12-06T15:15:48.143Z,100535.10
2018-12-06T15:18:17.323Z,100533.98
2018-12-06T15:20:46.553Z,100535.84
2018-12-06T15:23:15.763Z,100538.37
2018-12-06T15:25:44.978Z,100534.56
2018-12-06T15:28:14.422Z,100523.83
2018-12-06T15:30:43.741Z,100514.59
2018-12-06T15:33:12.974Z,100514.11
2018-12-06T15:35:42.318Z,100520.77
2018-12-06T15:38:11.591Z,100515.14
2018-12-06T15:40:40.870Z,100515.43
2018-12-06T15:43:10.512Z,100513.48
2018-12-06T15:45:39.931Z,100507.86
2018-12-06T15:48:09.509Z,100506.03
2018-12-06T15:50:38.728Z,100503.86
2018-12-06T15:53:07.964Z,100506.44
2018-12-06T15:55:37.188Z,100524.52
2018-12-06T15:58:06.451Z,100511.75
2018-12-06T16:00:35.726Z,100513.50
2018-12-06T16:03:05.023Z,100506.15
2018-12-06T16:05:34.442Z,100513.59
2018-12-06T16:08:03.724Z,100520.21
2018-12-06T16:10:32.990Z,100519.78
2018-12-06T16:13:02.308Z,100515.78
2018-12-06T16:15:31.582Z,100518.70
2018-12-06T16:18:00.910Z,100515.78
2018-12-06T16:20:30.190Z,100523.23
2018-12-06T16:22:59.526Z,100516.75
2018-12-06T16:25:28.753Z,100526.03
2018-12-06T16:28:00.849Z,100517.26
2018-12-06T16:30:30.091Z,100519.56
2018-12-06T16:32:59.348Z,100520.69
2018-12-06T16:35:28.562Z,100526.86
2018-12-06T16:37:57.844Z,100527.25
2018-12-06T16:40:27.178Z,100523.16
2018-12-06T16:42:56.444Z,100526.13
2018-12-06T16:45:25.685Z,100528.97
2018-12-06T16:47:55.053Z,100533.50
2018-12-06T16:50:24.306Z,100531.59
2018-12-06T16:52:53.529Z,100533.76
2018-12-06T16:55:22.757Z,100525.07
2018-12-06T16:57:52.011Z,100526.16
2018-12-06T17:00:21.905Z,100532.98
2018-12-06T17:02:51.167Z,100536.72
2018-12-06T17:05:20.406Z,100532.73
2018-12-06T17:07:49.739Z,100527.95
2018-12-06T17:10:19.275Z,100529.48
2018-12-06T17:12:48.507Z,100537.27
2018-12-06T17:15:18.763Z,100542.77
2018-12-06T17:17:48.044Z,100535.74
2018-12-06T17:20:17.986Z,100537.89
2018-12-06T17:22:47.216Z,100539.58
2018-12-06T17:25:17.375Z,100543.86
2018-12-06T17:27:46.707Z,100540.09
2018-12-06T17:30:16.860Z,100547.17
2018-12-06T17:32:46.120Z,100533.67
2018-12-06T17:35:16.474Z,100526.45
2018-12-06T17:37:45.795Z,100524.81
2018-12-06T17:55:20.654Z,100532.25
2018-12-06T17:57:49.970Z,100531.23
2018-12-06T18:00:20.013Z,100531.87
2018-12-06T18:02:49.301Z,100524.41
2018-12-06T18:05:18.619Z,100532.31
2018-12-06T18:07:47.802Z,100540.23
2018-12-06T18:10:18.035Z,100544.22
2018-12-06T18:12:47.296Z,100535.37
2018-12-06T18:15:17.337Z,100521.08
2018-12-06T18:17:46.812Z,100515.45
2018-12-06T18:20:17.424Z,100528.09
2018-12-06T18:22:46.687Z,100530.72
2018-12-06T18:25:16.831Z,100524.56
2018-12-06T18:27:46.209Z,100522.84
2018-12-06T18:30:17.821Z,100514.66
2018-12-06T18:32:47.042Z,100513.73
2018-12-06T18:35:17.593Z,100504.53
2018-12-06T18:37:46.994Z,100500.57
2018-12-06T18:40:17.419Z,100493.12
2018-12-06T18:42:46.802Z,100505.72
2018-12-06T18:45:17.025Z,100504.28
2018-12-06T18:47:46.371Z,100499.34
2018-12-06T18:50:16.756Z,100489.44
2018-12-06T18:52:45.939Z,100495.52
2018-12-06T18:55:16.181Z,100487.11
2018-12-06T18:57:45.515Z,100484.58
2018-12-06T19:00:16.411Z,100475.19
2018-12-06T19:02:46.982Z,100478.11
2018-12-06T19:05:17.066Z,100478.94
2018-12-06T19:07:46.343Z,100467.87
2018-12-06T19:10:17.439Z,100457.48
2018-12-06T19:12:46.628Z,100462.02
2018-12-06T19:15:18.705Z,100464.08
2018-12-06T19:17:47.987Z,100460.42
2018-12-06T19:20:18.078Z,100453.13
2018-12-06T19:22:47.337Z,100449.22
2018-12-06T19:25:18.648Z,100454.23
2018-12-06T19:27:47.907Z,100454.36
2018-12-06T19:30:17.921Z,100456.34
2018-12-06T19:32:47.300Z,100452.43
2018-12-06T19:35:17.300Z,100454.23
2018-12-06T19:37:48.405Z,100449.63
2018-12-06T19:40:18.202Z,100447.52
2018-12-06T19:42:47.423Z,100449.63
2018-12-06T19:45:17.578Z,100454.05
2018-12-06T19:47:46.849Z,100451.78
2018-12-06T19:50:16.859Z,100452.62
2018-12-06T19:52:46.093Z,100452.00
2018-12-06T19:55:15.637Z,100444.37
2018-12-06T19:57:44.881Z,100445.09
2018-12-06T20:00:14.919Z,100446.11
2018-12-06T20:02:44.256Z,100445.52
2018-12-06T20:05:14.219Z,100450.14
2018-12-06T20:07:43.532Z,100453.34
2018-12-06T20:10:12.810Z,100459.54
2018-12-06T20:12:42.144Z,100460.88
2018-12-06T20:15:11.435Z,100457.05
2018-12-06T20:17:40.908Z,100452.27
2018-12-06T20:20:10.166Z,100451.09
2018-12-06T20:22:39.488Z,100449.44
2018-12-06T20:25:08.754Z,100447.66
2018-12-06T20:27:38.692Z,100449.89
2018-12-06T20:30:07.986Z,100449.31
2018-12-06T20:32:37.403Z,100451.38
2018-12-06T20:35:06.750Z,100444.54
2018-12-06T20:37:36.190Z,100438.55
2018-12-06T20:40:05.836Z,100437.64
2018-12-06T20:42:35.059Z,100435.98
2018-12-06T20:45:04.318Z,100439.33
2018-12-06T20:47:33.633Z,100433.37
2018-12-06T20:50:02.884Z,100425.12
2018-12-06T20:52:32.085Z,100415.02
2018-12-06T20:55:01.403Z,100420.02
2018-12-06T20:57:36.957Z,100423.79
2018-12-06T20:59:59.902Z,100418.73
2018-12-06T21:02:29.428Z,100425.20
2018-12-06T21:04:58.638Z,100437.84
2018-12-06T21:07:27.831Z,100438.25
2018-12-06T21:09:57.326Z,100437.66
2018-12-06T21:12:26.580Z,100441.64
2018-12-06T21:14:55.886Z,100444.75
2018-12-06T21:17:25.121Z,100450.41
2018-12-06T21:19:54.458Z,100443.22
2018-12-06T21:22:23.739Z,100440.50
2018-12-06T21:24:53.033Z,100443.22
2018-12-06T21:27:22.237Z,100434.84
2018-12-06T21:29:51.496Z,100429.98
2018-12-06T21:32:20.852Z,100426.27
2018-12-06T21:34:50.153Z,100426.46
2018-12-06T21:37:19.461Z,100426.54
2018-12-06T21:39:48.743Z,100417.70
2018-12-06T21:42:17.914Z,100414.77
2018-12-06T21:44:47.325Z,100415.08
2018-12-06T21:47:21.830Z,100414.17
2018-12-06T21:49:51.093Z,100416.16
2018-12-06T21:52:20.310Z,100412.08
2018-12-06T21:54:49.613Z,100419.23
2018-12-06T21:57:18.812Z,100416.13
2018-12-06T21:59:48.099Z,100411.19
2018-12-06T22:02:23.815Z,100405.70
2018-12-06T22:04:54.143Z,100413.05
2018-12-06T22:07:23.377Z,100409.08
2018-12-06T22:09:52.628Z,100411.11
2018-12-06T22:12:21.882Z,100411.48
2018-12-06T22:14:51.182Z,100415.20
2018-12-06T22:17:20.414Z,100413.31
2018-12-06T22:19:49.640Z,100424.20
2018-12-06T22:22:18.892Z,100417.98
2018-12-06T22:24:48.110Z,100414.50
2018-12-06T22:27:18.108Z,100415.21
2018-12-06T22:29:47.329Z,100409.32
2018-12-06T22:32:17.124Z,100417.38
2018-12-06T22:34:46.433Z,100411.69
2018-12-06T22:37:15.716Z,100408.09
2018-12-06T22:39:44.938Z,100415.81
2018-12-06T22:42:14.747Z,100409.13
2018-12-06T22:44:44.121Z,100406.73
2018-12-06T22:47:14.025Z,100400.43
2018-12-06T22:49:43.370Z,100407.44
2018-12-06T22:52:13.284Z,100403.75
2018-12-06T22:54:42.536Z,100412.52
2018-12-06T22:57:12.000Z,100409.71
2018-12-06T22:59:41.283Z,100407.94
2018-12-06T23:02:10.643Z,100404.55
2018-12-06T23:04:39.950Z,100394.13
2018-12-06T23:07:09.230Z,100394.30
2018-12-06T23:09:38.444Z,100388.73
2018-12-06T23:12:07.781Z,100396.79
2018-12-06T23:14:37.165Z,100392.70
2018-12-06T23:17:06.354Z,100388.87
2018-12-06T23:19:35.574Z,100392.66
2018-12-06T23:22:04.818Z,100385.50
2018-12-06T23:24:34.046Z,100387.83
2018-12-06T23:27:03.317Z,100391.87
2018-12-06T23:29:32.536Z,100386.08
2018-12-06T23:32:01.778Z,100393.10
2018-12-06T23:34:30.969Z,100385.55
2018-12-06T23:37:00.215Z,100396.50
2018-12-06T23:39:29.430Z,100391.53
2018-12-06T23:41:58.642Z,100386.02
2018-12-06T23:44:27.970Z,100395.26
2018-12-06T23:46:57.228Z,100388.97
2018-12-06T23:49:26.503Z,100385.53
2018-12-06T23:51:55.727Z,100387.37
2018-12-06T23:54:24.980Z,100381.11
2018-12-06T23:56:54.229Z,100363.41
2018-12-06T23:59:23.469Z,100368.81
